Inta, Russia
Current Conditions -  °F | °C
As of 12:30 PM on Friday 24 Oct 2014 (Local Time) from UUYY Reporting Station
Overcast Overcast  
Wind Chill: 11°   Ceiling: 6600
Heat Index: 21°   Visibility: 6mi
Dew Point: 12°   Wind: 9mph
Humidity: 68%   Direction: 350°N
Pressure: 30.3"   Gusts: 20mph
Location:  66.04°N, 60.17°E
Report Text: UUYY 240930Z 35004G09MPS 9999 SCT030 OVC066 M06/M11 Q1026 TEMPO1000 SHSN SCT010CB 0182//49 RMK QFE760/1013
Loading
Personal Weather Stations






























Interactive Weather Map
Tropical Storm Tracking
New forecast layout! Learn more

10-Day Weather Forecast

Advertisements
Track Severe Weather on mobile